Time;durP1;ratioP1;P1;durP2;ratioP2;P2;SDS_P1;SDS_P2;PMS_P1;PMS_P2;Temp;Humidity;BMP_temperature;BMP_pressure;BME280_temperature;BME280_humidity;BME280_pressure;Samples;Min_cycle;Max_cycle;Signal;HPM_P1;HPM_P2
2021/07/31 03:01:27;;;;;;;;;;;17.70;99.90;;;;;;5;36053847;42064097;-87
2021/07/31 03:04:46;;;;;;;;;;;17.90;99.90;;;;;;5;36020289;41272199;-86
2021/07/31 03:08:06;;;;;;;;;;;17.80;99.90;;;;;;5;36020072;41273065;-87
2021/07/31 03:11:20;;;;;;;;;;;17.60;99.90;;;;;;5;36020275;41273931;-88
2021/07/31 03:14:37;;;;;;;;;;;17.60;99.90;;;;;;5;36020029;41271163;-87
2021/07/31 03:17:57;;;;;;;;;;;17.60;99.90;;;;;;5;36020059;41271328;-88
2021/07/31 03:21:16;;;;;;;;;;;17.70;99.90;;;;;;5;36017890;41271113;-87
2021/07/31 03:24:31;;;;;;;;;;;17.70;99.90;;;;;;5;36018152;41270726;-89
2021/07/31 03:27:48;;;;;;;;;;;17.80;99.90;;;;;;5;36018661;41270736;-87
2021/07/31 03:31:08;;;;;;;;;;;17.80;99.90;;;;;;5;36017989;41271836;-88
2021/07/31 03:34:30;;;;;;;;;;;17.80;99.90;;;;;;5;36018043;42022138;-86
2021/07/31 03:37:44;;;;;;;;;;;17.80;99.90;;;;;;5;36017427;41271113;-87
2021/07/31 03:41:01;;;;;;;;;;;17.80;99.90;;;;;;5;36018961;41271942;-88
2021/07/31 03:44:21;;;;;;;;;;;17.80;99.90;;;;;;5;36018419;41271946;-88
2021/07/31 03:47:40;;;;;;;;;;;17.90;99.90;;;;;;5;36018787;41272796;-88
2021/07/31 03:50:54;;;;;;;;;;;17.80;99.90;;;;;;5;36019346;41271834;-88
2021/07/31 03:54:12;;;;;;;;;;;17.90;99.90;;;;;;5;36018373;41271424;-88
2021/07/31 03:57:31;;;;;;;;;;;17.90;99.90;;;;;;5;36016747;41271644;-86
2021/07/31 04:00:51;;;;;;;;;;;17.80;99.90;;;;;;5;36018034;41272163;-86
2021/07/31 04:04:05;;;;;;;;;;;17.90;99.90;;;;;;5;36018570;41275937;-88
2021/07/31 04:07:24;;;;;;;;;;;17.80;99.90;;;;;;5;36018234;42020299;-88
2021/07/31 04:10:43;;;;;;;;;;;17.80;99.90;;;;;;5;36018527;41272031;-87
2021/07/31 04:14:02;;;;;;;;;;;17.80;99.90;;;;;;5;36018434;41271583;-88
2021/07/31 04:17:16;;;;;;;;;;;17.80;99.90;;;;;;5;36017319;41272157;-88
2021/07/31 04:20:34;;;;;;;;;;;17.80;99.90;;;;;;5;36017770;41270950;-88
2021/07/31 04:23:53;;;;;;;;;;;17.90;99.90;;;;;;5;36017400;41270820;-87
2021/07/31 04:27:13;;;;;;;;;;;17.80;99.90;;;;;;5;36018492;41272341;-88
2021/07/31 04:30:29;;;;;;;;;;;17.90;99.90;;;;;;5;36018737;41272263;-87
2021/07/31 04:33:46;;;;;;;;;;;17.80;99.90;;;;;;5;36018862;41273235;-88
2021/07/31 04:37:05;;;;;;;;;;;17.80;99.90;;;;;;5;36017617;41271655;-86
2021/07/31 04:40:26;;;;;;;;;;;17.80;99.90;;;;;;5;36018284;42020617;-88
2021/07/31 04:43:40;;;;;;;;;;;17.90;99.90;;;;;;5;36017849;41270440;-88
2021/07/31 04:46:57;;;;;;;;;;;17.80;99.90;;;;;;5;36018532;41271940;-86
2021/07/31 04:50:17;;;;;;;;;;;17.90;99.90;;;;;;5;36019034;41272112;-88
2021/07/31 04:53:36;;;;;;;;;;;17.90;99.90;;;;;;5;36019182;41271260;-85
2021/07/31 04:56:51;;;;;;;;;;;17.90;99.90;;;;;;5;36018491;41271392;-86
2021/07/31 05:00:08;;;;;;;;;;;17.90;99.90;;;;;;5;36019653;41271367;-85
2021/07/31 05:03:28;;;;;;;;;;;18.00;99.90;;;;;;5;36019312;41272273;-85
2021/07/31 05:06:47;;;;;;;;;;;18.10;99.90;;;;;;5;36018460;41271216;-85
2021/07/31 05:10:02;;;;;;;;;;;18.10;99.90;;;;;;5;36020255;41272931;-87
2021/07/31 05:13:20;;;;;;;;;;;18.10;99.90;;;;;;5;36018984;42020596;-88
2021/07/31 05:16:40;;;;;;;;;;;18.10;99.90;;;;;;5;36018154;41270705;-87
2021/07/31 05:20:00;;;;;;;;;;;18.20;99.90;;;;;;5;36017938;41271435;-87
2021/07/31 05:23:14;;;;;;;;;;;18.30;99.90;;;;;;5;36018262;41271238;-85
2021/07/31 05:26:31;;;;;;;;;;;18.30;99.90;;;;;;5;36017874;41271200;-87
2021/07/31 05:29:51;;;;;;;;;;;18.40;99.90;;;;;;5;36016667;41271767;-86
2021/07/31 05:33:10;;;;;;;;;;;18.50;99.90;;;;;;5;36018540;41270823;-87
2021/07/31 05:36:24;;;;;;;;;;;18.60;99.90;;;;;;5;36018631;41270817;-85
2021/07/31 05:39:42;;;;;;;;;;;18.60;99.90;;;;;;5;36022413;41271286;-85
2021/07/31 05:43:02;;;;;;;;;;;18.80;99.90;;;;;;5;36018471;41272309;-88
2021/07/31 05:46:22;;;;;;;;;;;18.80;99.90;;;;;;5;36017443;42020290;-86
2021/07/31 05:49:37;;;;;;;;;;;18.80;99.90;;;;;;5;36019457;41271164;-86
2021/07/31 05:52:54;;;;;;;;;;;19.00;99.90;;;;;;5;36017548;41272379;-87
2021/07/31 05:56:14;;;;;;;;;;;19.00;99.90;;;;;;5;36019038;41271438;-88
2021/07/31 05:59:34;;;;;;;;;;;18.90;99.90;;;;;;5;36017605;41271864;-85
2021/07/31 06:02:48;;;;;;;;;;;19.00;99.90;;;;;;5;36019560;41271759;-88
2021/07/31 06:06:05;;;;;;;;;;;19.10;99.90;;;;;;5;36018536;41271071;-88
2021/07/31 06:09:25;;;;;;;;;;;19.20;99.90;;;;;;5;36017410;41270473;-87
2021/07/31 06:12:44;;;;;;;;;;;19.20;99.90;;;;;;5;36018097;41272649;-85
2021/07/31 06:15:59;;;;;;;;;;;19.30;99.90;;;;;;5;36017614;41272129;-85
2021/07/31 06:19:17;;;;;;;;;;;19.30;99.90;;;;;;5;36018395;42022873;-86
2021/07/31 06:22:37;;;;;;;;;;;19.30;99.90;;;;;;5;36017909;41270744;-87
2021/07/31 06:26:00;;;;;;;;;;;19.40;99.90;;;;;;5;36018942;41271089;-87
2021/07/31 06:29:14;;;;;;;;;;;19.50;99.90;;;;;;5;36019261;41271731;-87
2021/07/31 06:32:32;;;;;;;;;;;19.50;99.90;;;;;;5;36019246;41270929;-87
2021/07/31 06:35:51;;;;;;;;;;;19.50;99.90;;;;;;5;36017529;41271911;-87
2021/07/31 06:39:11;;;;;;;;;;;19.40;99.90;;;;;;5;36018315;41270833;-86
2021/07/31 06:42:25;;;;;;;;;;;19.50;99.90;;;;;;5;36017785;41269363;-87
2021/07/31 06:45:42;;;;;;;;;;;19.50;99.90;;;;;;5;36017958;41271084;-88
2021/07/31 06:49:03;;;;;;;;;;;19.50;99.90;;;;;;5;36017967;41270958;-87
2021/07/31 06:52:24;;;;;;;;;;;19.50;99.90;;;;;;5;36017245;42022572;-87
2021/07/31 06:55:39;;;;;;;;;;;19.50;99.90;;;;;;5;36018338;41270958;-87
2021/07/31 06:58:56;;;;;;;;;;;19.40;99.90;;;;;;5;36018684;41270832;-87
2021/07/31 07:02:15;;;;;;;;;;;19.50;99.90;;;;;;5;36018506;41271545;-87
2021/07/31 07:05:35;;;;;;;;;;;19.50;99.90;;;;;;5;36018764;41271453;-88
2021/07/31 07:08:49;;;;;;;;;;;19.40;99.90;;;;;;5;36018835;41271326;-88
2021/07/31 07:12:06;;;;;;;;;;;19.50;99.90;;;;;;5;36017994;41271778;-87
2021/07/31 07:15:27;;;;;;;;;;;19.50;99.90;;;;;;5;36017180;41272004;-87
2021/07/31 07:18:47;;;;;;;;;;;19.50;99.90;;;;;;5;36018050;41270833;-87
2021/07/31 07:22:01;;;;;;;;;;;19.60;99.90;;;;;;5;36018520;41271423;-87
2021/07/31 07:25:20;;;;;;;;;;;19.70;99.90;;;;;;5;36019600;42020468;-89
2021/07/31 07:28:39;;;;;;;;;;;19.80;99.90;;;;;;5;36019817;41273334;-87
2021/07/31 07:31:59;;;;;;;;;;;20.00;99.90;;;;;;5;36017065;41270497;-87
2021/07/31 07:35:13;;;;;;;;;;;20.10;99.90;;;;;;5;36018152;41271410;-85
2021/07/31 07:38:31;;;;;;;;;;;20.00;99.90;;;;;;5;36017415;41271047;-87
2021/07/31 07:41:50;;;;;;;;;;;19.90;99.90;;;;;;5;36017158;41271206;-86
2021/07/31 07:45:09;;;;;;;;;;;19.80;99.90;;;;;;5;36019083;41271524;-88
2021/07/31 07:48:24;;;;;;;;;;;19.90;99.90;;;;;;5;36017949;41271148;-87
2021/07/31 07:51:41;;;;;;;;;;;20.10;99.90;;;;;;5;36017205;41270583;-88
2021/07/31 07:55:00;;;;;;;;;;;20.20;99.90;;;;;;5;36017894;41271657;-87
2021/07/31 07:58:21;;;;;;;;;;;20.50;99.90;;;;;;5;36019474;42021454;-86
2021/07/31 08:01:35;;;;;;;;;;;20.70;99.90;;;;;;5;36019857;41270837;-86
2021/07/31 08:04:53;;;;;;;;;;;21.00;99.90;;;;;;5;36020351;41272505;-87
2021/07/31 08:08:12;;;;;;;;;;;21.30;99.90;;;;;;5;36019388;41272337;-87
2021/07/31 08:12:09;;;;;;;;;;;21.40;99.90;;;;;;5;36017015;41271272;-87
2021/07/31 08:15:23;;;;;;;;;;;21.50;99.90;;;;;;5;36019049;41271413;-86
2021/07/31 08:18:40;;;;;;;;;;;21.70;99.90;;;;;;5;36018023;41271074;-87
2021/07/31 08:22:00;;;;;;;;;;;21.80;99.90;;;;;;5;36017903;41271002;-87
2021/07/31 08:25:19;;;;;;;;;;;22.00;99.90;;;;;;5;36019126;41271362;-88
2021/07/31 08:28:33;;;;;;;;;;;22.10;99.90;;;;;;5;36018224;41271645;-88
2021/07/31 08:31:52;;;;;;;;;;;22.30;99.90;;;;;;5;36019224;42021640;-86
2021/07/31 08:35:11;;;;;;;;;;;22.20;99.80;;;;;;5;36017301;41271222;-87
2021/07/31 08:38:31;;;;;;;;;;;22.50;99.90;;;;;;5;36018078;41272266;-87
2021/07/31 08:41:46;;;;;;;;;;;22.70;98.20;;;;;;5;36017656;41271236;-87
2021/07/31 08:45:04;;;;;;;;;;;22.80;97.00;;;;;;5;36018475;41272117;-87
2021/07/31 08:48:30;;;;;;;;;;;22.90;95.90;;;;;;5;36017922;41271471;-88
2021/07/31 08:51:50;;;;;;;;;;;23.10;93.70;;;;;;5;36018764;41271279;-88
2021/07/31 08:55:05;;;;;;;;;;;23.60;93.70;;;;;;5;36019242;41272495;-87
2021/07/31 08:58:24;;;;;;;;;;;23.90;90.20;;;;;;5;36017708;41271339;-87
2021/07/31 09:01:44;;;;;;;;;;;24.10;89.80;;;;;;5;36017803;41269988;-87
2021/07/31 09:05:05;;;;;;;;;;;24.40;86.00;;;;;;5;36017513;42021133;-88
2021/07/31 09:08:19;;;;;;;;;;;24.70;81.50;;;;;;5;36019300;41270553;-86
2021/07/31 09:11:53;;;;;;;;;;;25.10;82.90;;;;;;5;36018433;41270840;-88
2021/07/31 09:15:13;;;;;;;;;;;25.80;79.90;;;;;;5;36016616;41270556;-87
2021/07/31 09:18:34;;;;;;;;;;;26.30;76.50;;;;;;5;36018087;41271242;-88
2021/07/31 09:21:49;;;;;;;;;;;26.60;75.30;;;;;;5;36018332;41270241;-88
2021/07/31 09:25:07;;;;;;;;;;;26.80;74.90;;;;;;5;36018365;41270693;-87
2021/07/31 09:28:27;;;;;;;;;;;27.00;72.20;;;;;;5;36018333;41269809;-88
2021/07/31 09:31:49;;;;;;;;;;;27.10;71.90;;;;;;5;36017182;41270697;-86
2021/07/31 09:35:17;;;;;;;;;;;26.60;67.90;;;;;;5;36018282;41270941;-88
2021/07/31 09:38:37;;;;;;;;;;;26.50;71.40;;;;;;5;36016845;42021387;-88
2021/07/31 09:41:57;;;;;;;;;;;26.70;68.80;;;;;;5;36018322;41271057;-86
2021/07/31 09:45:18;;;;;;;;;;;26.70;68.90;;;;;;5;36020410;41269715;-86
2021/07/31 09:48:37;;;;;;;;;;;26.90;66.50;;;;;;5;36017707;41270491;-86
2021/07/31 09:51:59;;;;;;;;;;;27.10;68.80;;;;;;5;36016825;41271803;-86
2021/07/31 09:55:20;;;;;;;;;;;27.50;67.80;;;;;;5;36017711;41270146;-85
2021/07/31 09:58:40;;;;;;;;;;;27.30;67.60;;;;;;5;36018268;41272456;-87
2021/07/31 10:02:01;;;;;;;;;;;27.20;68.20;;;;;;5;36017375;41270506;-87
2021/07/31 10:05:18;;;;;;;;;;;27.10;68.10;;;;;;5;36018106;41271096;-88
2021/07/31 10:08:38;;;;;;;;;;;27.00;66.20;;;;;;5;36018937;41272373;-86
2021/07/31 10:11:59;;;;;;;;;;;27.00;67.00;;;;;;5;36020007;42022566;-87
2021/07/31 10:15:13;;;;;;;;;;;26.90;65.80;;;;;;5;36019124;41272106;-86
2021/07/31 10:18:30;;;;;;;;;;;26.50;66.40;;;;;;5;36019019;41271248;-88
2021/07/31 10:22:00;;;;;;;;;;;26.20;66.70;;;;;;5;36015851;41272257;-88
2021/07/31 10:25:20;;;;;;;;;;;25.90;66.80;;;;;;5;36015996;41268508;-88
2021/07/31 10:28:35;;;;;;;;;;;25.70;68.00;;;;;;5;36017908;41268636;-88
2021/07/31 10:31:52;;;;;;;;;;;25.60;69.30;;;;;;5;36016888;41270346;-88
2021/07/31 10:35:23;;;;;;;;;;;25.70;69.00;;;;;;5;36017950;41271337;-87
2021/07/31 10:38:43;;;;;;;;;;;25.60;68.10;;;;;;5;36017530;41270384;-88
2021/07/31 10:41:57;;;;;;;;;;;25.90;68.10;;;;;;5;36018531;41273032;-88
2021/07/31 10:45:16;;;;;;;;;;;26.10;67.90;;;;;;5;36017673;42020963;-88
2021/07/31 10:48:36;;;;;;;;;;;26.70;67.60;;;;;;5;36017653;41271758;-89
2021/07/31 10:51:56;;;;;;;;;;;26.60;65.20;;;;;;5;36019227;41271477;-87
2021/07/31 10:55:10;;;;;;;;;;;26.60;66.40;;;;;;5;36018003;41270517;-88
2021/07/31 10:58:29;;;;;;;;;;;26.20;66.00;;;;;;5;36017887;41270998;-89
2021/07/31 11:01:49;;;;;;;;;;;25.90;65.90;;;;;;5;36015938;41271281;-88
2021/07/31 11:05:08;;;;;;;;;;;26.00;66.50;;;;;;5;36018158;41271134;-88
2021/07/31 11:08:23;;;;;;;;;;;25.90;67.70;;;;;;5;36017824;41270790;-88
2021/07/31 11:11:41;;;;;;;;;;;25.80;68.10;;;;;;5;36017007;41271079;-87
2021/07/31 11:15:04;;;;;;;;;;;25.90;67.90;;;;;;5;36018674;41271969;-88
2021/07/31 11:18:26;;;;;;;;;;;25.90;67.50;;;;;;5;36017433;42021559;-88
2021/07/31 11:21:49;;;;;;;;;;;25.80;65.40;;;;;;5;36019076;41271482;-88
2021/07/31 11:25:07;;;;;;;;;;;25.60;68.20;;;;;;5;36017839;41270759;-88
2021/07/31 11:28:28;;;;;;;;;;;25.90;69.00;;;;;;5;36017105;41270963;-88
2021/07/31 11:32:01;;;;;;;;;;;26.10;68.00;;;;;;5;36018358;41271290;-89
2021/07/31 11:35:25;;;;;;;;;;;26.10;67.10;;;;;;5;36017446;41270463;-88
2021/07/31 11:38:42;;;;;;;;;;;26.10;67.60;;;;;;5;36018349;41271429;-88
2021/07/31 11:42:02;;;;;;;;;;;26.00;68.80;;;;;;5;36017969;41269974;-87
2021/07/31 11:45:23;;;;;;;;;;;25.80;68.20;;;;;;5;36018433;41269464;-87
2021/07/31 11:48:37;;;;;;;;;;;25.60;67.00;;;;;;5;36017134;41271407;-87
2021/07/31 11:51:57;;;;;;;;;;;25.40;66.70;;;;;;5;36018986;42021529;-88
2021/07/31 11:55:23;;;;;;;;;;;25.40;68.40;;;;;;5;36018659;41271125;-89
2021/07/31 11:58:46;;;;;;;;;;;25.40;68.50;;;;;;5;36018157;41272341;-88
2021/07/31 12:02:00;;;;;;;;;;;25.50;69.00;;;;;;5;36018203;41272082;-88
2021/07/31 12:05:36;;;;;;;;;;;25.50;68.70;;;;;;5;36018483;41271383;-87
2021/07/31 12:09:01;;;;;;;;;;;25.50;68.60;;;;;;5;36018284;41269756;-86
2021/07/31 12:12:24;;;;;;;;;;;25.50;66.90;;;;;;5;36015966;41270452;-86
2021/07/31 12:15:41;;;;;;;;;;;25.40;68.10;;;;;;5;36017403;41270383;-87
2021/07/31 12:18:58;;;;;;;;;;;25.30;69.80;;;;;;5;36017950;41270674;-88
2021/07/31 12:22:28;;;;;;;;;;;25.20;69.80;;;;;;5;36018682;41270930;-87
2021/07/31 12:25:56;;;;;;;;;;;25.20;69.20;;;;;;5;36016696;42022332;-89
2021/07/31 12:29:29;;;;;;;;;;;25.20;68.80;;;;;;5;36017103;41269929;-87
2021/07/31 12:32:46;;;;;;;;;;;25.30;70.50;;;;;;5;36017058;41271873;-87
2021/07/31 12:36:05;;;;;;;;;;;25.30;69.10;;;;;;5;36016649;41271691;-87
2021/07/31 12:39:25;;;;;;;;;;;25.30;69.60;;;;;;5;36017502;41271688;-87
2021/07/31 12:42:39;;;;;;;;;;;25.20;68.60;;;;;;5;36017937;41269963;-86
2021/07/31 12:45:58;;;;;;;;;;;25.10;69.40;;;;;;5;36016953;41270330;-87
2021/07/31 12:49:17;;;;;;;;;;;24.90;69.80;;;;;;5;36017426;41270620;-87
2021/07/31 12:52:36;;;;;;;;;;;24.80;68.60;;;;;;5;36017900;41271251;-87
2021/07/31 12:55:53;;;;;;;;;;;24.60;70.60;;;;;;5;36016906;41273160;-88
2021/07/31 12:59:12;;;;;;;;;;;24.60;69.90;;;;;;5;36017785;42020977;-86
2021/07/31 13:02:31;;;;;;;;;;;24.60;70.60;;;;;;5;36017277;41270705;-88
2021/07/31 13:05:50;;;;;;;;;;;24.50;70.00;;;;;;5;36017290;41270878;-87
2021/07/31 13:09:06;;;;;;;;;;;24.50;69.90;;;;;;5;36018351;41270145;-86
2021/07/31 13:12:23;;;;;;;;;;;24.50;70.50;;;;;;5;36016970;41270634;-87
2021/07/31 13:15:42;;;;;;;;;;;24.40;70.60;;;;;;5;36016480;41271052;-87
2021/07/31 13:19:02;;;;;;;;;;;24.30;70.20;;;;;;5;36018688;41271021;-88
2021/07/31 13:22:36;;;;;;;;;;;24.40;72.20;;;;;;5;36018013;41270250;-87
2021/07/31 13:25:53;;;;;;;;;;;24.40;71.20;;;;;;5;36016451;41267681;-87
2021/07/31 13:29:12;;;;;;;;;;;24.40;69.70;;;;;;5;36015255;41269584;-87
2021/07/31 13:32:34;;;;;;;;;;;24.40;70.70;;;;;;5;36015328;42020317;-87
2021/07/31 13:35:50;;;;;;;;;;;24.50;70.80;;;;;;5;36016938;41268604;-88
2021/07/31 13:39:14;;;;;;;;;;;24.60;69.70;;;;;;5;36017590;41269749;-88
2021/07/31 13:42:34;;;;;;;;;;;25.00;69.50;;;;;;5;36017104;41270857;-87
2021/07/31 13:45:53;;;;;;;;;;;25.40;66.10;;;;;;5;36017939;41270255;-86
2021/07/31 13:49:08;;;;;;;;;;;25.90;65.20;;;;;;5;36019005;41270143;-88
2021/07/31 13:52:25;;;;;;;;;;;26.00;64.90;;;;;;5;36014895;41270174;-88
2021/07/31 13:55:44;;;;;;;;;;;26.00;66.30;;;;;;5;36015340;41268714;-88
2021/07/31 13:59:04;;;;;;;;;;;25.90;65.00;;;;;;5;36015080;41269539;-87
2021/07/31 14:02:19;;;;;;;;;;;26.00;65.20;;;;;;5;36016515;41268046;-88
2021/07/31 14:05:37;;;;;;;;;;;26.00;63.70;;;;;;5;36014381;42017717;-87
2021/07/31 14:08:57;;;;;;;;;;;25.90;64.00;;;;;;5;36017545;41271346;-89
2021/07/31 14:12:16;;;;;;;;;;;25.80;66.40;;;;;;5;36018052;41270776;-87
2021/07/31 14:15:30;;;;;;;;;;;25.90;64.30;;;;;;5;36016646;41271366;-86
2021/07/31 14:18:48;;;;;;;;;;;26.20;64.10;;;;;;5;36018054;41269841;-87
2021/07/31 14:22:07;;;;;;;;;;;26.40;63.70;;;;;;5;36018006;41270388;-86
2021/07/31 14:25:27;;;;;;;;;;;26.30;62.30;;;;;;5;36019385;41269831;-88
2021/07/31 14:28:41;;;;;;;;;;;26.30;63.30;;;;;;5;36015119;41267638;-87
2021/07/31 14:31:59;;;;;;;;;;;26.50;66.10;;;;;;5;36016154;41268444;-88
2021/07/31 14:35:18;;;;;;;;;;;26.40;63.20;;;;;;5;36015629;41268236;-90
2021/07/31 14:38:39;;;;;;;;;;;26.10;62.90;;;;;;5;36014637;42018837;-89
2021/07/31 14:41:53;;;;;;;;;;;26.00;65.60;;;;;;5;36015301;41269014;-89
2021/07/31 14:45:10;;;;;;;;;;;25.90;64.40;;;;;;5;36014952;41267444;-89
2021/07/31 14:48:30;;;;;;;;;;;25.80;67.50;;;;;;5;36018404;41268087;-89
2021/07/31 14:51:49;;;;;;;;;;;25.60;64.30;;;;;;5;36018853;41270715;-87
2021/07/31 14:55:04;;;;;;;;;;;25.40;67.80;;;;;;5;36018596;41271233;-86
2021/07/31 14:58:21;;;;;;;;;;;25.30;68.70;;;;;;5;36018830;41270645;-87
2021/07/31 15:01:40;;;;;;;;;;;25.20;65.10;;;;;;5;36018292;41270679;-85
2021/07/31 15:05:00;;;;;;;;;;;25.10;66.50;;;;;;5;36017928;41270420;-87
2021/07/31 15:08:15;;;;;;;;;;;25.10;66.30;;;;;;5;36018945;41270416;-88
2021/07/31 15:11:33;;;;;;;;;;;24.90;68.20;;;;;;5;36017971;42021318;-85
2021/07/31 15:14:53;;;;;;;;;;;24.90;66.80;;;;;;5;36017309;41270857;-89
2021/07/31 15:18:12;;;;;;;;;;;24.60;70.40;;;;;;5;36018451;41270818;-85
2021/07/31 15:21:26;;;;;;;;;;;24.40;70.60;;;;;;5;36017856;41270854;-89
2021/07/31 15:24:44;;;;;;;;;;;24.30;71.80;;;;;;5;36016749;41271786;-86
2021/07/31 15:28:04;;;;;;;;;;;24.10;73.40;;;;;;5;36018153;41270469;-86
2021/07/31 15:31:23;;;;;;;;;;;24.00;72.60;;;;;;5;36018054;41272796;-87
2021/07/31 15:34:37;;;;;;;;;;;24.00;74.40;;;;;;5;36016064;41271444;-87
2021/07/31 15:37:57;;;;;;;;;;;24.10;76.10;;;;;;5;36018042;41270264;-87
2021/07/31 15:41:17;;;;;;;;;;;24.10;76.10;;;;;;5;36018764;41272654;-87
2021/07/31 15:44:38;;;;;;;;;;;24.10;75.20;;;;;;5;36019115;42020250;-86
2021/07/31 15:47:52;;;;;;;;;;;24.10;73.60;;;;;;5;36018771;41270837;-87
2021/07/31 15:51:09;;;;;;;;;;;24.00;74.50;;;;;;5;36016623;41271400;-89
2021/07/31 15:54:28;;;;;;;;;;;23.90;74.00;;;;;;5;36017152;41271127;-87
2021/07/31 15:57:48;;;;;;;;;;;23.70;74.40;;;;;;5;36018288;41270691;-87
2021/07/31 16:01:02;;;;;;;;;;;23.60;76.40;;;;;;5;36017098;41271870;-86
2021/07/31 16:04:19;;;;;;;;;;;23.40;76.60;;;;;;5;36017846;41272522;-89
2021/07/31 16:07:39;;;;;;;;;;;23.30;76.70;;;;;;5;36018573;41270832;-85
2021/07/31 16:10:58;;;;;;;;;;;23.20;76.40;;;;;;5;36017500;41270678;-86
2021/07/31 16:14:12;;;;;;;;;;;23.10;76.70;;;;;;5;36017729;41270067;-87
2021/07/31 16:17:31;;;;;;;;;;;23.10;79.30;;;;;;5;36017302;42022050;-88
2021/07/31 16:20:50;;;;;;;;;;;23.20;79.10;;;;;;5;36017404;41272542;-88
2021/07/31 16:24:10;;;;;;;;;;;23.10;80.10;;;;;;5;36019405;41272092;-88
2021/07/31 16:27:24;;;;;;;;;;;23.00;81.00;;;;;;5;36018428;41271001;-86
2021/07/31 16:30:41;;;;;;;;;;;23.00;81.70;;;;;;5;36017833;41270977;-86
2021/07/31 16:34:00;;;;;;;;;;;22.80;80.50;;;;;;5;36016585;41271656;-87
2021/07/31 16:37:21;;;;;;;;;;;22.50;81.80;;;;;;5;36017916;41270741;-89
2021/07/31 16:40:35;;;;;;;;;;;22.30;82.70;;;;;;5;36019742;41270910;-88
2021/07/31 16:43:52;;;;;;;;;;;22.10;83.40;;;;;;5;36017465;41272382;-88
2021/07/31 16:47:11;;;;;;;;;;;22.00;86.00;;;;;;5;36017846;41271349;-88
2021/07/31 16:50:32;;;;;;;;;;;21.90;87.50;;;;;;5;36016938;42021324;-88
2021/07/31 16:53:47;;;;;;;;;;;21.50;90.00;;;;;;5;36018249;41271485;-88
2021/07/31 16:57:04;;;;;;;;;;;21.10;91.00;;;;;;5;36019565;41271273;-88
2021/07/31 17:00:23;;;;;;;;;;;20.90;91.90;;;;;;5;36018401;41272122;-88
2021/07/31 17:03:43;;;;;;;;;;;20.80;92.90;;;;;;5;36018734;41270758;-86
2021/07/31 17:06:57;;;;;;;;;;;20.70;94.00;;;;;;5;36020546;41271102;-88
2021/07/31 17:10:14;;;;;;;;;;;20.80;95.20;;;;;;5;36017419;41271074;-89
2021/07/31 17:13:34;;;;;;;;;;;20.90;96.00;;;;;;5;36018107;41271740;-89
2021/07/31 17:16:53;;;;;;;;;;;20.90;97.20;;;;;;5;36018820;41272078;-88
2021/07/31 17:20:07;;;;;;;;;;;20.90;98.00;;;;;;5;36018109;41272215;-88
2021/07/31 17:23:26;;;;;;;;;;;20.50;99.70;;;;;;5;36017338;42021623;-88
2021/07/31 17:26:46;;;;;;;;;;;20.40;99.90;;;;;;5;36017005;41270581;-88
2021/07/31 17:30:05;;;;;;;;;;;20.40;99.90;;;;;;5;36018686;41272070;-88
2021/07/31 17:33:20;;;;;;;;;;;20.50;99.90;;;;;;5;36018399;41271912;-88
2021/07/31 17:36:37;;;;;;;;;;;20.40;99.90;;;;;;5;36018932;41271618;-86
2021/07/31 17:39:57;;;;;;;;;;;20.20;99.90;;;;;;5;36019150;41271378;-86
2021/07/31 17:43:16;;;;;;;;;;;20.00;99.90;;;;;;5;36018973;41270923;-87
2021/07/31 17:46:30;;;;;;;;;;;20.10;99.90;;;;;;5;36016320;41272220;-87
2021/07/31 17:49:47;;;;;;;;;;;20.10;99.90;;;;;;5;36017873;41270834;-88
2021/07/31 17:53:07;;;;;;;;;;;20.00;99.90;;;;;;5;36018291;41270308;-88
2021/07/31 17:56:28;;;;;;;;;;;20.00;99.90;;;;;;5;36018188;42020799;-88
2021/07/31 17:59:43;;;;;;;;;;;20.10;99.90;;;;;;5;36018789;41272104;-87
2021/07/31 18:03:00;;;;;;;;;;;20.20;99.90;;;;;;5;36016775;41270946;-88
2021/07/31 18:06:19;;;;;;;;;;;20.20;99.90;;;;;;5;36017223;41272078;-87
2021/07/31 18:09:40;;;;;;;;;;;20.10;99.90;;;;;;5;36017719;41270314;-88
2021/07/31 18:12:54;;;;;;;;;;;19.80;99.90;;;;;;5;36017454;41270963;-89
2021/07/31 18:16:12;;;;;;;;;;;19.60;99.90;;;;;;5;36018732;41270209;-86
2021/07/31 18:19:31;;;;;;;;;;;19.50;99.90;;;;;;5;36017574;41271163;-87
2021/07/31 18:22:51;;;;;;;;;;;19.60;99.90;;;;;;5;36015682;41268917;-88
2021/07/31 18:26:05;;;;;;;;;;;19.50;99.90;;;;;;5;36016334;41268752;-87
2021/07/31 18:29:24;;;;;;;;;;;19.50;99.90;;;;;;5;36015747;42019810;-88
2021/07/31 18:32:43;;;;;;;;;;;19.40;99.90;;;;;;5;36018465;41270615;-88
2021/07/31 18:36:03;;;;;;;;;;;19.30;99.90;;;;;;5;36018728;41271336;-89
2021/07/31 18:39:17;;;;;;;;;;;19.20;99.90;;;;;;5;36018455;41271366;-88
2021/07/31 18:42:34;;;;;;;;;;;19.20;99.90;;;;;;5;36017357;41270254;-87
2021/07/31 18:45:53;;;;;;;;;;;19.10;99.90;;;;;;5;36020520;41269796;-87
2021/07/31 18:49:13;;;;;;;;;;;19.00;99.90;;;;;;5;36018407;41270664;-87
2021/07/31 18:52:27;;;;;;;;;;;19.00;99.90;;;;;;5;36018849;41270633;-88
2021/07/31 18:55:44;;;;;;;;;;;19.00;99.90;;;;;;5;36018442;41271331;-87
2021/07/31 18:59:04;;;;;;;;;;;18.90;99.90;;;;;;5;36018115;41270275;-88
2021/07/31 19:02:25;;;;;;;;;;;18.80;99.90;;;;;;5;36019502;42023393;-85
2021/07/31 19:05:39;;;;;;;;;;;18.80;99.90;;;;;;5;36018807;41272995;-84
2021/07/31 19:08:56;;;;;;;;;;;18.80;99.90;;;;;;5;36019611;41270862;-84
2021/07/31 19:12:15;;;;;;;;;;;18.70;99.90;;;;;;5;36019442;41272788;-86
2021/07/31 19:15:36;;;;;;;;;;;18.70;99.90;;;;;;5;36017649;41271819;-85
2021/07/31 19:18:50;;;;;;;;;;;18.70;99.90;;;;;;5;36019518;41271677;-84
2021/07/31 19:22:08;;;;;;;;;;;18.60;99.90;;;;;;5;36017620;41270684;-87
2021/07/31 19:25:27;;;;;;;;;;;18.60;99.90;;;;;;5;36017084;41271696;-86
2021/07/31 19:28:46;;;;;;;;;;;18.50;99.90;;;;;;5;36018775;41272934;-84
2021/07/31 19:32:01;;;;;;;;;;;18.50;99.90;;;;;;5;36016872;41270806;-86
2021/07/31 19:35:19;;;;;;;;;;;18.50;99.90;;;;;;5;36018049;42021879;-87
2021/07/31 19:38:39;;;;;;;;;;;18.40;99.90;;;;;;5;36017909;41270764;-86
2021/07/31 19:42:00;;;;;;;;;;;18.40;99.90;;;;;;5;36018303;41271684;-89
2021/07/31 19:45:14;;;;;;;;;;;18.40;99.90;;;;;;5;36019511;41271305;-88
2021/07/31 19:48:31;;;;;;;;;;;18.30;99.90;;;;;;5;36018360;41270755;-88
2021/07/31 19:51:51;;;;;;;;;;;18.30;99.90;;;;;;5;36018417;41271582;-86
2021/07/31 19:55:10;;;;;;;;;;;18.30;99.90;;;;;;5;36017659;41270918;-88
2021/07/31 19:58:25;;;;;;;;;;;18.30;99.90;;;;;;5;36019637;41271545;-88
2021/07/31 20:01:42;;;;;;;;;;;18.30;99.90;;;;;;5;36019206;41271899;-88
2021/07/31 20:05:01;;;;;;;;;;;18.20;99.90;;;;;;5;36018264;41271701;-88
2021/07/31 20:08:22;;;;;;;;;;;18.20;99.90;;;;;;5;36017992;42022139;-89
2021/07/31 20:11:36;;;;;;;;;;;18.10;99.90;;;;;;5;36018410;41271552;-87
2021/07/31 20:14:53;;;;;;;;;;;18.10;99.90;;;;;;5;36018041;41272000;-88
2021/07/31 20:18:13;;;;;;;;;;;18.10;99.90;;;;;;5;36018695;41272235;-89
2021/07/31 20:21:32;;;;;;;;;;;18.00;99.90;;;;;;5;36017216;41270913;-88
2021/07/31 20:24:47;;;;;;;;;;;18.00;99.90;;;;;;5;36019450;41270348;-88
2021/07/31 20:28:04;;;;;;;;;;;18.00;99.90;;;;;;5;36018958;41271503;-88
2021/07/31 20:31:23;;;;;;;;;;;18.00;99.90;;;;;;5;36018970;41270715;-89
2021/07/31 20:34:43;;;;;;;;;;;18.00;99.90;;;;;;5;36017763;41271067;-88
2021/07/31 20:37:58;;;;;;;;;;;18.00;99.90;;;;;;5;36018342;41271612;-87
2021/07/31 20:41:17;;;;;;;;;;;18.00;99.90;;;;;;5;36018076;42021242;-87
2021/07/31 20:44:36;;;;;;;;;;;18.00;99.90;;;;;;5;36018518;41272132;-87
2021/07/31 20:47:56;;;;;;;;;;;18.00;99.90;;;;;;5;36018589;41272351;-87
2021/07/31 20:51:10;;;;;;;;;;;18.00;99.90;;;;;;5;36018701;41271677;-87
2021/07/31 20:54:27;;;;;;;;;;;18.00;99.90;;;;;;5;36018734;41273497;-86
2021/07/31 20:57:47;;;;;;;;;;;18.00;99.90;;;;;;5;36017249;41271746;-87
2021/07/31 21:01:06;;;;;;;;;;;18.00;99.90;;;;;;5;36018335;41271980;-86
2021/07/31 21:04:20;;;;;;;;;;;18.00;99.90;;;;;;5;36017828;41271340;-87
2021/07/31 21:07:37;;;;;;;;;;;18.00;99.90;;;;;;5;36017445;41270222;-88
2021/07/31 21:10:57;;;;;;;;;;;17.90;99.90;;;;;;5;36017783;41271512;-87
2021/07/31 21:14:18;;;;;;;;;;;17.90;99.90;;;;;;5;36018463;42020760;-88
2021/07/31 21:17:33;;;;;;;;;;;17.90;99.90;;;;;;5;36019050;41272000;-88
2021/07/31 21:20:50;;;;;;;;;;;17.90;99.90;;;;;;5;36019154;41272134;-88
2021/07/31 21:24:09;;;;;;;;;;;17.80;99.90;;;;;;5;36019565;41270697;-88
2021/07/31 21:27:29;;;;;;;;;;;17.80;99.90;;;;;;5;36019084;41271000;-87